Time;durP1;ratioP1;P1;durP2;ratioP2;P2;SDS_P1;SDS_P2;PMS_P1;PMS_P2;Temp;Humidity;BMP_temperature;BMP_pressure;BME280_temperature;BME280_humidity;BME280_pressure;Samples;Min_cycle;Max_cycle;Signal;HPM_P1;HPM_P2
2023/01/30 08:28:00;;;;;;;5.07;1.60;;;7.90;99.90;;;;;;4930754;29;20276;-71
2023/01/30 08:30:27;;;;;;;6.13;1.80;;;7.80;99.90;;;;;;4921540;29;20580;-71
2023/01/30 08:32:54;;;;;;;8.50;1.77;;;7.70;99.90;;;;;;4913710;29;20237;-72
2023/01/30 08:35:20;;;;;;;7.63;1.90;;;7.70;99.90;;;;;;4898484;29;20634;-71
2023/01/30 08:37:47;;;;;;;7.17;2.23;;;7.70;99.90;;;;;;4905956;29;20297;-72
2023/01/30 08:40:15;;;;;;;7.80;2.10;;;7.90;99.90;;;;;;4917693;29;20218;-72
2023/01/30 08:42:44;;;;;;;5.83;1.67;;;7.90;99.90;;;;;;4917437;29;20304;-71
2023/01/30 08:45:12;;;;;;;9.10;2.13;;;8.10;99.90;;;;;;4917204;29;20256;-72
2023/01/30 08:47:39;;;;;;;11.27;1.60;;;8.10;99.90;;;;;;4917253;29;20236;-72
2023/01/30 08:50:06;;;;;;;6.37;1.40;;;8.00;99.90;;;;;;4917166;29;20301;-71
2023/01/30 08:52:33;;;;;;;4.13;1.93;;;7.90;99.90;;;;;;4912600;29;20214;-71
2023/01/30 08:55:00;;;;;;;5.43;1.30;;;7.90;99.90;;;;;;4915385;29;20217;-70
2023/01/30 08:57:26;;;;;;;8.50;1.23;;;7.90;99.90;;;;;;4917768;29;20214;-70
2023/01/30 08:59:53;;;;;;;3.57;1.07;;;8.00;99.90;;;;;;4918105;29;20210;-70
2023/01/30 09:02:21;;;;;;;3.07;1.03;;;8.00;99.90;;;;;;4918249;29;20235;-69
2023/01/30 09:04:48;;;;;;;11.50;1.20;;;8.10;99.90;;;;;;4917927;29;20217;-70
2023/01/30 09:07:15;;;;;;;4.10;1.00;;;8.20;99.90;;;;;;4917771;29;20296;-70
2023/01/30 09:09:41;;;;;;;3.93;1.00;;;8.30;99.90;;;;;;4918028;29;20214;-69
2023/01/30 09:12:08;;;;;;;6.97;1.07;;;8.20;99.90;;;;;;4917714;29;20665;-71
2023/01/30 09:14:35;;;;;;;1.53;0.70;;;8.10;99.90;;;;;;4917753;29;20328;-69
2023/01/30 09:17:02;;;;;;;6.87;1.00;;;8.20;99.90;;;;;;4917808;29;20210;-70
2023/01/30 09:19:30;;;;;;;7.77;1.30;;;8.10;99.90;;;;;;4917726;29;20205;-71
2023/01/30 09:21:57;;;;;;;2.47;0.90;;;8.10;99.90;;;;;;4917665;29;20213;-71
2023/01/30 09:24:25;;;;;;;7.10;1.10;;;8.10;99.90;;;;;;4916937;29;20673;-70
2023/01/30 09:26:52;;;;;;;5.80;1.23;;;8.20;99.90;;;;;;4918081;29;20221;-70
2023/01/30 09:29:19;;;;;;;6.73;1.03;;;8.30;99.90;;;;;;4917808;29;20213;-71
2023/01/30 09:31:46;;;;;;;8.10;1.07;;;8.20;99.90;;;;;;4917562;29;20220;-71
2023/01/30 09:34:13;;;;;;;6.00;1.17;;;8.20;99.90;;;;;;4917735;29;20596;-71
2023/01/30 09:36:42;;;;;;;2.30;0.67;;;8.20;99.90;;;;;;4917255;29;20269;-71
2023/01/30 09:39:08;;;;;;;3.00;0.90;;;8.20;99.90;;;;;;4917497;29;20237;-70
2023/01/30 09:41:53;;;;;;;5.33;1.37;;;8.30;99.90;;;;;;4917542;29;20232;-70
2023/01/30 09:45:05;;;;;;;3.40;0.50;;;8.30;99.90;;;;;;4917173;29;20233;-71
2023/01/30 09:47:42;;;;;;;6.17;1.33;;;8.50;99.90;;;;;;4856763;29;20207;-70
2023/01/30 09:50:25;;;;;;;4.00;0.80;;;8.50;99.90;;;;;;4913346;29;20580;-70
2023/01/30 09:52:59;;;;;;;4.57;0.77;;;8.50;99.90;;;;;;4916843;29;20230;-70
2023/01/30 09:55:28;;;;;;;4.37;1.47;;;8.40;99.90;;;;;;4917046;29;20213;-69
2023/01/30 09:57:58;;;;;;;6.47;0.93;;;8.40;99.90;;;;;;4916840;29;20209;-69
2023/01/30 10:00:28;;;;;;;3.30;0.70;;;8.40;99.90;;;;;;4916638;29;20213;-69
2023/01/30 10:03:03;;;;;;;3.87;1.10;;;8.30;99.90;;;;;;4916529;29;20245;-70
2023/01/30 10:05:36;;;;;;;8.53;1.00;;;8.40;99.90;;;;;;4916615;29;20221;-70
2023/01/30 10:08:32;;;;;;;3.93;0.90;;;8.40;99.90;;;;;;4916775;29;20205;-70
2023/01/30 10:11:05;;;;;;;6.17;0.90;;;8.40;99.90;;;;;;4916868;29;20225;-69
2023/01/30 10:13:50;;;;;;;4.67;0.80;;;8.50;99.90;;;;;;4909155;29;20319;-69
2023/01/30 10:16:21;;;;;;;5.10;0.97;;;8.40;99.90;;;;;;4916516;29;20210;-70
2023/01/30 10:19:00;;;;;;;3.90;0.90;;;8.60;99.90;;;;;;4916236;29;20209;-70
2023/01/30 10:21:34;;;;;;;4.47;0.90;;;8.60;99.90;;;;;;4916084;29;20219;-71
2023/01/30 10:24:20;;;;;;;5.33;0.80;;;8.80;99.90;;;;;;4915963;29;20247;-71
2023/01/30 10:26:48;;;;;;;6.50;0.90;;;8.80;99.90;;;;;;4916500;29;20227;-70
2023/01/30 10:29:19;;;;;;;4.30;0.80;;;8.80;99.90;;;;;;4916236;29;20210;-70
2023/01/30 10:31:49;;;;;;;9.00;1.50;;;8.80;99.90;;;;;;4916689;29;20213;-70
2023/01/30 10:34:20;;;;;;;8.17;1.57;;;8.70;99.90;;;;;;4916402;29;20711;-71
2023/01/30 10:36:54;;;;;;;3.23;1.03;;;8.80;99.90;;;;;;4916436;29;20237;-71
2023/01/30 10:39:31;;;;;;;4.80;1.00;;;8.80;99.90;;;;;;4916702;29;20213;-71
2023/01/30 10:42:06;;;;;;;10.03;1.00;;;8.80;99.90;;;;;;4916495;29;20221;-71
2023/01/30 10:44:33;;;;;;;4.20;0.80;;;8.90;99.90;;;;;;4916204;29;20245;-71
2023/01/30 10:47:18;;;;;;;4.33;1.37;;;8.90;99.90;;;;;;4916531;29;20261;-71
2023/01/30 10:49:49;;;;;;;10.30;1.00;;;9.00;99.90;;;;;;4916648;29;20235;-70
2023/01/30 10:52:30;;;;;;;7.63;0.90;;;8.90;99.90;;;;;;4916831;29;20552;-71
2023/01/30 10:55:08;;;;;;;4.17;0.53;;;8.90;99.90;;;;;;4916621;29;20226;-71
2023/01/30 10:57:56;;;;;;;8.67;0.90;;;9.00;99.90;;;;;;4916620;29;20205;-71
2023/01/30 11:00:28;;;;;;;9.93;1.43;;;9.10;99.90;;;;;;4916372;29;20691;-71
2023/01/30 11:03:11;;;;;;;5.87;1.10;;;9.30;99.90;;;;;;4916606;29;20245;-70
2023/01/30 11:05:44;;;;;;;8.33;0.90;;;9.50;99.90;;;;;;4916852;29;20214;-72
2023/01/30 11:08:20;;;;;;;7.07;1.03;;;9.60;99.90;;;;;;4916571;29;20257;-70
2023/01/30 11:10:49;;;;;;;3.50;0.67;;;9.60;99.90;;;;;;4912761;29;20213;-69
2023/01/30 11:13:18;;;;;;;5.80;0.60;;;9.80;99.90;;;;;;4914372;29;20240;-70
2023/01/30 11:15:48;;;;;;;5.30;0.70;;;10.00;99.90;;;;;;4914987;29;20292;-70
2023/01/30 11:18:16;;;;;;;3.07;0.80;;;10.10;99.90;;;;;;4915097;29;20305;-71
2023/01/30 11:20:45;;;;;;;6.47;1.10;;;10.10;99.90;;;;;;4915003;29;20212;-71
2023/01/30 11:23:25;;;;;;;6.83;1.00;;;10.00;99.90;;;;;;4914752;29;20244;-73
2023/01/30 11:25:55;;;;;;;4.53;0.70;;;10.00;99.90;;;;;;4914279;29;20213;-73
2023/01/30 11:28:23;;;;;;;4.20;0.73;;;9.90;99.90;;;;;;4913705;29;20216;-73
2023/01/30 11:30:54;;;;;;;5.93;0.93;;;9.90;99.90;;;;;;4914566;29;20217;-73
2023/01/30 11:33:24;;;;;;;5.27;0.83;;;9.90;99.90;;;;;;4914866;29;20233;-73
2023/01/30 11:35:57;;;;;;;4.90;0.63;;;9.90;99.90;;;;;;4915965;29;20214;-72
2023/01/30 11:38:26;;;;;;;2.53;0.63;;;10.10;99.90;;;;;;4914910;29;20213;-73
2023/01/30 11:41:05;;;;;;;2.07;0.63;;;10.00;99.90;;;;;;4915619;29;20213;-72
2023/01/30 11:43:33;;;;;;;6.50;0.80;;;9.90;99.90;;;;;;4914684;29;20238;-73
2023/01/30 11:46:01;;;;;;;7.37;0.83;;;9.80;99.90;;;;;;4915414;29;20229;-72
2023/01/30 11:48:30;;;;;;;3.77;0.93;;;9.80;99.90;;;;;;4916764;29;20688;-74
2023/01/30 11:51:01;;;;;;;10.17;1.40;;;9.90;99.90;;;;;;4919028;29;20214;-73
2023/01/30 11:53:33;;;;;;;6.33;0.73;;;9.90;99.90;;;;;;4919085;29;20226;-73
2023/01/30 11:56:06;;;;;;;5.50;0.57;;;9.70;99.90;;;;;;4918869;29;20206;-73
2023/01/30 11:58:35;;;;;;;5.60;0.70;;;9.60;99.90;;;;;;4918743;29;20301;-73
2023/01/30 12:01:03;;;;;;;6.63;0.80;;;9.60;99.90;;;;;;4919243;29;20214;-73
2023/01/30 12:03:30;;;;;;;3.10;0.70;;;9.60;99.90;;;;;;4918804;29;20335;-73
2023/01/30 12:05:58;;;;;;;3.70;1.00;;;9.60;99.90;;;;;;4918876;29;20210;-73
2023/01/30 12:08:28;;;;;;;4.17;0.90;;;9.70;99.90;;;;;;4918807;29;20308;-73
2023/01/30 12:10:58;;;;;;;4.73;1.03;;;9.60;99.90;;;;;;4918730;29;20573;-74
2023/01/30 12:13:32;;;;;;;3.17;0.60;;;9.50;99.90;;;;;;4918322;29;20248;-73
2023/01/30 12:16:14;;;;;;;10.97;1.00;;;9.60;99.90;;;;;;4918169;29;20569;-73
2023/01/30 12:18:48;;;;;;;6.73;0.97;;;9.50;99.90;;;;;;4918679;29;20213;-73
2023/01/30 12:21:26;;;;;;;2.13;0.50;;;9.40;99.90;;;;;;4915554;29;20220;-73
2023/01/30 12:24:00;;;;;;;5.00;0.80;;;9.40;99.90;;;;;;4917461;29;20243;-75
2023/01/30 12:26:30;;;;;;;6.07;0.60;;;9.30;99.90;;;;;;4917927;29;20225;-76
2023/01/30 12:29:10;;;;;;;7.20;0.73;;;9.30;99.90;;;;;;4918146;29;20214;-76
2023/01/30 12:31:41;;;;;;;4.63;1.00;;;9.40;99.90;;;;;;4918258;29;20214;-78
2023/01/30 12:34:09;;;;;;;8.90;1.00;;;9.40;99.90;;;;;;4918325;29;20233;-75
2023/01/30 12:36:42;;;;;;;8.90;1.00;;;9.60;99.90;;;;;;4918241;29;20565;-76
2023/01/30 12:39:29;;;;;;;8.47;0.70;;;9.70;99.90;;;;;;4918442;29;20569;-80
2023/01/30 12:42:19;;;;;;;4.93;0.73;;;9.70;99.90;;;;;;4917961;29;20229;-75
2023/01/30 12:45:01;;;;;;;7.00;1.07;;;9.70;99.90;;;;;;4918269;29;20249;-77
2023/01/30 12:47:55;;;;;;;4.07;1.50;;;9.70;99.90;;;;;;4918493;29;20209;-77
2023/01/30 12:50:33;;;;;;;8.17;1.50;;;9.60;99.90;;;;;;4918093;29;20216;-76
2023/01/30 12:53:33;;;;;;;6.57;0.87;;;9.40;99.90;;;;;;4918397;29;20233;-78
2023/01/30 12:56:24;;;;;;;8.27;1.43;;;9.50;99.90;;;;;;4918236;29;20210;-76
2023/01/30 12:58:57;;;;;;;4.60;1.13;;;9.50;99.90;;;;;;4917793;29;20569;-75
2023/01/30 13:01:33;;;;;;;4.10;0.50;;;9.40;99.90;;;;;;4918106;29;20214;-75
2023/01/30 13:04:09;;;;;;;4.70;0.80;;;9.30;99.90;;;;;;4918120;29;20245;-75
2023/01/30 13:06:58;;;;;;;5.87;0.80;;;9.20;99.90;;;;;;4917716;29;20213;-76
2023/01/30 13:09:42;;;;;;;6.37;0.87;;;9.20;99.90;;;;;;4917685;29;20665;-75
2023/01/30 13:12:16;;;;;;;5.37;0.70;;;9.20;99.90;;;;;;4917473;29;20573;-74
2023/01/30 13:14:50;;;;;;;8.77;1.00;;;9.20;99.90;;;;;;4917492;29;20697;-73
2023/01/30 13:17:38;;;;;;;10.73;1.00;;;9.20;99.90;;;;;;4917631;29;20213;-73
2023/01/30 13:20:16;;;;;;;4.00;0.77;;;9.30;99.90;;;;;;4917756;29;20561;-73
2023/01/30 13:22:52;;;;;;;6.17;0.90;;;9.40;99.90;;;;;;4916768;29;20240;-72
2023/01/30 13:25:27;;;;;;;7.93;0.93;;;9.50;99.90;;;;;;4917047;29;20237;-72
2023/01/30 13:27:58;;;;;;;13.57;2.23;;;9.50;99.90;;;;;;4916331;29;20276;-73
2023/01/30 13:30:26;;;;;;;5.97;1.00;;;9.50;99.90;;;;;;4917680;29;20210;-74
2023/01/30 13:32:58;;;;;;;6.57;0.80;;;9.60;99.90;;;;;;4917947;29;20233;-73
2023/01/30 13:35:30;;;;;;;7.30;1.00;;;9.80;99.90;;;;;;4916668;29;20210;-73
2023/01/30 13:37:59;;;;;;;4.93;0.93;;;9.90;99.90;;;;;;4916546;29;20546;-73
2023/01/30 13:40:31;;;;;;;5.37;0.80;;;9.80;99.90;;;;;;4917147;29;20210;-73
2023/01/30 13:43:03;;;;;;;4.23;0.97;;;9.80;99.90;;;;;;4917459;29;20264;-73
2023/01/30 13:45:34;;;;;;;7.53;1.10;;;9.70;99.90;;;;;;4917686;29;20233;-72
2023/01/30 13:48:17;;;;;;;5.43;1.73;;;9.70;99.90;;;;;;4917463;29;20214;-73
2023/01/30 13:50:59;;;;;;;2.80;0.80;;;9.80;99.90;;;;;;4917374;29;20300;-73
2023/01/30 13:53:32;;;;;;;3.63;0.70;;;9.70;99.90;;;;;;4917489;29;20238;-73
2023/01/30 13:56:07;;;;;;;4.63;0.97;;;9.70;99.90;;;;;;4917375;29;20683;-73
2023/01/30 13:58:42;;;;;;;6.23;1.00;;;9.60;99.90;;;;;;4917124;29;20627;-73
2023/01/30 14:01:10;;;;;;;7.20;0.97;;;9.60;99.90;;;;;;4917412;29;20205;-73
2023/01/30 14:03:39;;;;;;;9.93;1.10;;;9.60;99.90;;;;;;4917081;29;20233;-74
2023/01/30 14:06:28;;;;;;;7.20;0.90;;;9.60;99.90;;;;;;4917347;29;20217;-73
2023/01/30 14:08:58;;;;;;;3.27;0.77;;;9.60;99.90;;;;;;4914858;29;20209;-73
2023/01/30 14:11:46;;;;;;;5.73;1.50;;;9.40;99.90;;;;;;4916523;29;20233;-73
2023/01/30 14:14:32;;;;;;;1.97;0.50;;;9.30;99.90;;;;;;4917085;29;20296;-74
2023/01/30 14:17:10;;;;;;;11.80;1.00;;;9.30;99.90;;;;;;4916875;29;20209;-74
2023/01/30 14:20:01;;;;;;;6.00;0.83;;;9.30;99.90;;;;;;4917195;29;20213;-72
2023/01/30 14:22:39;;;;;;;3.20;0.70;;;9.40;99.90;;;;;;4916927;29;20206;-72
2023/01/30 14:25:45;;;;;;;8.50;1.17;;;9.40;99.90;;;;;;4916443;29;20237;-73
2023/01/30 14:28:51;;;;;;;9.47;1.17;;;9.40;99.90;;;;;;4916681;29;20691;-73
2023/01/30 14:31:52;;;;;;;9.67;0.90;;;9.30;99.90;;;;;;4918660;29;20296;-74
2023/01/30 14:34:43;;;;;;;7.03;0.80;;;9.20;99.90;;;;;;4916982;29;20264;-74
2023/01/30 14:37:44;;;;;;;7.40;1.10;;;9.30;99.90;;;;;;4904460;29;20220;-73
2023/01/30 14:40:28;;;;;;;3.87;0.80;;;9.50;99.90;;;;;;4916895;29;20213;-71
2023/01/30 14:43:40;;;;;;;8.63;1.00;;;9.60;99.90;;;;;;4920406;29;20229;-72
2023/01/30 14:46:31;;;;;;;2.67;0.50;;;9.60;99.90;;;;;;4920483;29;20224;-74
2023/01/30 14:49:03;;;;;;;3.63;0.63;;;9.60;99.90;;;;;;4918629;29;20703;-74
2023/01/30 14:51:35;;;;;;;5.43;0.83;;;9.60;99.90;;;;;;4922367;29;20252;-73
2023/01/30 14:54:09;;;;;;;8.70;1.53;;;9.60;99.90;;;;;;4921712;29;20235;-75
2023/01/30 14:56:43;;;;;;;5.93;0.83;;;9.60;99.90;;;;;;4920863;29;20243;-73
2023/01/30 14:59:24;;;;;;;5.90;1.10;;;9.60;99.90;;;;;;4916826;29;20213;-73
2023/01/30 15:01:56;;;;;;;5.33;0.60;;;9.60;99.90;;;;;;4916728;29;20215;-73
2023/01/30 15:04:26;;;;;;;4.83;0.60;;;9.50;99.90;;;;;;4916991;29;20772;-73
2023/01/30 15:06:53;;;;;;;6.37;0.90;;;9.50;99.90;;;;;;4916575;29;20216;-73
2023/01/30 15:09:25;;;;;;;8.07;0.73;;;9.50;99.90;;;;;;4917021;29;20210;-74
2023/01/30 15:12:01;;;;;;;5.93;0.83;;;9.60;99.90;;;;;;4917108;29;20210;-73
2023/01/30 15:14:35;;;;;;;6.70;1.17;;;9.50;99.90;;;;;;4916828;29;20243;-73
2023/01/30 15:17:14;;;;;;;12.20;1.40;;;9.40;99.90;;;;;;4916545;29;20661;-73
2023/01/30 15:20:12;;;;;;;6.67;0.87;;;9.40;99.90;;;;;;4916884;29;20209;-73
2023/01/30 15:22:50;;;;;;;8.13;1.00;;;9.40;99.90;;;;;;4919792;29;20209;-73
2023/01/30 15:25:30;;;;;;;6.97;1.07;;;9.30;99.90;;;;;;4920599;29;20266;-74
2023/01/30 15:28:06;;;;;;;5.40;0.93;;;9.20;99.90;;;;;;4920379;29;20232;-73
2023/01/30 15:30:45;;;;;;;8.63;1.03;;;9.20;99.90;;;;;;4919889;29;20223;-73
2023/01/30 15:33:16;;;;;;;4.00;0.80;;;9.10;99.90;;;;;;4919998;29;20229;-74
2023/01/30 15:35:43;;;;;;;5.20;0.90;;;9.10;99.90;;;;;;4920095;29;20245;-73
2023/01/30 15:38:24;;;;;;;6.50;0.90;;;9.10;99.90;;;;;;4920158;29;20218;-74
2023/01/30 15:40:54;;;;;;;4.60;0.70;;;8.90;99.90;;;;;;4919616;29;20217;-73
2023/01/30 15:43:41;;;;;;;13.83;1.50;;;8.90;99.90;;;;;;4919424;29;20225;-74
2023/01/30 15:46:16;;;;;;;4.23;1.10;;;8.90;99.90;;;;;;4919412;29;20237;-73
2023/01/30 15:49:10;;;;;;;6.10;0.73;;;8.90;99.90;;;;;;4919630;29;20201;-73
2023/01/30 15:51:38;;;;;;;11.07;1.07;;;8.90;99.90;;;;;;4919429;29;20542;-73
2023/01/30 15:54:10;;;;;;;9.03;1.30;;;9.00;99.90;;;;;;4919471;29;20249;-74
2023/01/30 15:56:40;;;;;;;4.53;0.93;;;9.00;99.90;;;;;;4919429;29;20235;-74
2023/01/30 15:59:07;;;;;;;7.60;2.67;;;9.00;99.90;;;;;;4919283;29;20210;-73
2023/01/30 16:01:34;;;;;;;6.90;1.23;;;8.90;99.90;;;;;;4919278;29;20220;-73
2023/01/30 16:04:06;;;;;;;6.17;1.10;;;8.90;99.90;;;;;;4918857;29;20240;-73
2023/01/30 16:06:35;;;;;;;3.97;0.83;;;8.80;99.90;;;;;;4916198;29;20202;-75
2023/01/30 16:09:03;;;;;;;6.30;0.97;;;8.80;99.90;;;;;;4918216;29;20209;-72
2023/01/30 16:11:36;;;;;;;9.97;1.30;;;8.70;99.90;;;;;;4917692;29;20215;-72
2023/01/30 16:14:06;;;;;;;5.70;0.87;;;8.80;99.90;;;;;;4917699;29;20231;-72
2023/01/30 16:16:35;;;;;;;8.27;0.97;;;8.80;99.90;;;;;;4917568;29;20206;-73
2023/01/30 16:19:05;;;;;;;8.73;1.20;;;8.80;99.90;;;;;;4917911;29;20206;-71
2023/01/30 16:21:34;;;;;;;6.93;1.63;;;8.80;99.90;;;;;;4917844;29;20316;-73
2023/01/30 16:24:04;;;;;;;7.80;0.90;;;8.90;99.90;;;;;;4917517;29;20600;-73
2023/01/30 16:26:32;;;;;;;4.93;0.80;;;8.90;99.90;;;;;;4917126;29;20677;-73
2023/01/30 16:29:02;;;;;;;8.73;1.67;;;8.90;99.90;;;;;;4917484;29;20225;-74
2023/01/30 16:31:33;;;;;;;8.33;0.90;;;8.80;99.90;;;;;;4917214;29;20224;-74
2023/01/30 16:34:00;;;;;;;7.73;1.00;;;8.90;99.90;;;;;;4916571;29;20605;-74
2023/01/30 16:36:33;;;;;;;7.93;1.00;;;8.90;99.90;;;;;;4916859;29;20226;-74
2023/01/30 16:39:00;;;;;;;8.83;1.53;;;8.90;99.90;;;;;;4915831;29;20217;-73
2023/01/30 16:41:32;;;;;;;6.10;1.00;;;8.90;99.90;;;;;;4917528;29;20669;-72
2023/01/30 16:44:17;;;;;;;5.27;0.90;;;8.90;99.90;;;;;;4917633;29;20240;-73
2023/01/30 16:46:55;;;;;;;8.83;1.33;;;8.90;99.90;;;;;;4917067;29;20676;-71
2023/01/30 16:49:25;;;;;;;28.93;6.57;;;8.70;99.90;;;;;;4917434;29;20206;-72
2023/01/30 16:52:01;;;;;;;6.77;1.43;;;8.80;99.90;;;;;;4917141;29;20296;-74
2023/01/30 16:54:30;;;;;;;11.60;1.07;;;9.00;99.90;;;;;;4917115;29;20236;-73
2023/01/30 16:56:59;;;;;;;8.10;1.70;;;8.90;99.90;;;;;;4917246;29;20572;-74
2023/01/30 16:59:30;;;;;;;5.80;1.00;;;8.80;99.90;;;;;;4917109;29;20273;-73
2023/01/30 17:01:59;;;;;;;8.03;1.10;;;8.70;99.90;;;;;;4917104;29;20283;-76
2023/01/30 17:04:29;;;;;;;5.13;1.10;;;8.70;99.90;;;;;;4916492;29;20234;-76
2023/01/30 17:06:59;;;;;;;4.17;1.00;;;8.70;99.90;;;;;;4917097;29;20212;-71
2023/01/30 17:09:40;;;;;;;4.07;0.97;;;8.70;99.90;;;;;;4916576;29;20210;-71
2023/01/30 17:12:47;;;;;;;8.47;0.87;;;8.60;99.90;;;;;;4916822;29;20213;-71
2023/01/30 17:15:32;;;;;;;10.90;1.77;;;8.60;99.90;;;;;;4916987;29;20205;-72
2023/01/30 17:18:00;;;;;;;8.03;1.17;;;8.60;99.90;;;;;;4916511;29;20673;-73
2023/01/30 17:20:37;;;;;;;5.27;1.10;;;8.60;99.90;;;;;;4916587;29;20219;-73
2023/01/30 17:23:08;;;;;;;8.10;1.30;;;8.70;99.90;;;;;;4916592;29;20236;-73
2023/01/30 17:25:39;;;;;;;8.40;1.33;;;8.80;99.90;;;;;;4916520;29;20240;-74
2023/01/30 17:28:06;;;;;;;3.50;1.13;;;8.70;99.90;;;;;;4916194;29;20206;-74
2023/01/30 17:30:33;;;;;;;4.20;0.87;;;8.60;99.90;;;;;;4916299;29;20205;-74
2023/01/30 17:33:01;;;;;;;12.80;1.70;;;8.70;99.90;;;;;;4916286;29;20225;-74
2023/01/30 17:35:28;;;;;;;5.00;1.00;;;8.70;99.90;;;;;;4912805;29;20695;-74
2023/01/30 17:37:55;;;;;;;7.43;0.77;;;8.70;99.90;;;;;;4916160;29;20756;-74
2023/01/30 17:40:31;;;;;;;9.93;1.57;;;8.60;99.90;;;;;;4916384;29;20573;-72
2023/01/30 17:42:58;;;;;;;6.53;1.20;;;8.50;99.90;;;;;;4916067;29;20263;-74
2023/01/30 17:45:25;;;;;;;6.87;1.10;;;8.30;99.90;;;;;;4915214;29;20603;-74
2023/01/30 17:47:52;;;;;;;8.33;1.33;;;8.20;99.90;;;;;;4916535;29;20212;-74
2023/01/30 17:50:20;;;;;;;9.20;1.13;;;8.10;99.90;;;;;;4915960;29;20220;-73
2023/01/30 17:52:47;;;;;;;2.83;0.80;;;8.00;99.90;;;;;;4911934;29;20226;-71
2023/01/30 17:55:14;;;;;;;6.83;1.10;;;8.20;99.90;;;;;;4912344;29;20238;-73
2023/01/30 17:57:43;;;;;;;10.07;1.50;;;8.30;99.90;;;;;;4915537;29;20206;-74
2023/01/30 18:00:16;;;;;;;9.50;1.40;;;8.30;99.90;;;;;;4915690;29;20206;-74
2023/01/30 18:02:43;;;;;;;4.13;0.93;;;8.20;99.90;;;;;;4915927;29;20216;-74
2023/01/30 18:05:10;;;;;;;7.77;1.00;;;8.20;99.90;;;;;;4934223;29;20228;-75
2023/01/30 18:07:38;;;;;;;6.93;1.80;;;8.10;99.90;;;;;;4935201;29;20217;-74
2023/01/30 18:10:07;;;;;;;9.87;1.07;;;7.90;99.90;;;;;;4935420;29;20215;-73
2023/01/30 18:12:34;;;;;;;6.47;1.20;;;7.80;99.90;;;;;;4922762;29;20201;-72
2023/01/30 18:15:00;;;;;;;8.53;1.27;;;7.70;99.90;;;;;;4933262;29;20656;-74
2023/01/30 18:17:28;;;;;;;4.20;1.30;;;7.80;99.90;;;;;;4935280;29;20208;-75
2023/01/30 18:19:55;;;;;;;12.83;1.30;;;7.90;99.90;;;;;;4934529;29;20656;-73
2023/01/30 18:22:22;;;;;;;5.20;1.13;;;7.90;99.90;;;;;;4934333;29;20216;-70
2023/01/30 18:24:50;;;;;;;5.63;1.17;;;7.80;99.90;;;;;;4933765;29;20233;-70
2023/01/30 18:27:17;;;;;;;6.40;1.27;;;7.70;99.90;;;;;;4934339;29;20746;-71
2023/01/30 18:29:44;;;;;;;7.73;1.00;;;7.60;99.90;;;;;;4915223;29;20668;-71
2023/01/30 18:32:10;;;;;;;8.67;1.57;;;7.50;99.90;;;;;;4914734;29;20209;-70
2023/01/30 18:34:37;;;;;;;6.77;1.50;;;7.50;99.90;;;;;;4916404;29;20234;-69
2023/01/30 18:37:04;;;;;;;7.37;1.50;;;7.50;99.90;;;;;;4916754;29;20213;-69
2023/01/30 18:39:31;;;;;;;3.73;0.93;;;7.50;99.90;;;;;;4916784;29;20210;-69
2023/01/30 18:42:00;;;;;;;8.70;1.07;;;7.40;99.90;;;;;;4916783;29;20641;-70
2023/01/30 18:44:27;;;;;;;8.90;1.30;;;7.30;99.90;;;;;;4916806;29;20720;-70
2023/01/30 18:46:54;;;;;;;6.07;1.20;;;7.30;99.90;;;;;;4916563;29;20297;-70
2023/01/30 18:49:21;;;;;;;5.17;1.10;;;7.30;99.90;;;;;;4916820;29;20210;-69
2023/01/30 18:51:48;;;;;;;7.93;1.70;;;7.30;99.90;;;;;;4917045;29;20569;-70
2023/01/30 18:54:14;;;;;;;8.23;1.30;;;7.10;99.90;;;;;;4916661;29;20230;-69
2023/01/30 18:56:41;;;;;;;12.67;2.83;;;7.00;99.90;;;;;;4918269;29;20223;-70
2023/01/30 18:59:10;;;;;;;10.27;2.33;;;7.10;99.90;;;;;;4920539;29;20209;-69
2023/01/30 19:01:41;;;;;;;12.13;2.33;;;7.20;99.90;;;;;;4920819;29;20219;-69
2023/01/30 19:04:09;;;;;;;7.13;1.67;;;7.20;99.90;;;;;;4920617;29;20236;-69
2023/01/30 19:06:37;;;;;;;5.93;1.60;;;7.30;99.90;;;;;;4920262;29;20707;-68
2023/01/30 19:09:04;;;;;;;11.93;1.87;;;7.30;99.90;;;;;;4920405;29;20304;-69
2023/01/30 19:14:17;;;;;;;8.47;2.17;;;7.40;99.90;;;;;;4920186;29;20312;-69
2023/01/30 19:16:44;;;;;;;6.80;1.90;;;7.40;99.90;;;;;;4920152;29;20205;-69
2023/01/30 19:19:10;;;;;;;15.63;2.37;;;7.40;99.90;;;;;;4920117;29;20206;-70
2023/01/30 19:21:38;;;;;;;7.13;2.00;;;7.30;99.90;;;;;;4920264;29;20224;-70
2023/01/30 19:24:06;;;;;;;11.17;2.03;;;7.40;99.90;;;;;;4920145;29;20588;-70
2023/01/30 19:26:33;;;;;;;6.00;1.90;;;7.40;99.90;;;;;;4920133;29;20288;-69
2023/01/30 19:29:00;;;;;;;7.13;1.70;;;7.50;99.90;;;;;;4920047;29;20209;-70
2023/01/30 19:31:28;;;;;;;8.57;2.10;;;7.50;99.90;;;;;;4920190;29;20214;-70
2023/01/30 19:33:57;;;;;;;12.93;2.20;;;7.60;99.90;;;;;;4919981;29;20230;-71
2023/01/30 19:36:25;;;;;;;13.53;2.27;;;7.60;99.90;;;;;;4920024;29;20218;-70
2023/01/30 19:38:53;;;;;;;9.03;1.70;;;7.60;99.90;;;;;;4919961;29;20214;-70
2023/01/30 19:41:23;;;;;;;7.00;1.90;;;7.50;99.90;;;;;;4920151;29;20284;-69
2023/01/30 19:43:50;;;;;;;10.43;3.20;;;7.50;99.90;;;;;;4919802;29;20233;-69
2023/01/30 19:46:17;;;;;;;10.47;1.90;;;7.50;99.90;;;;;;4919958;29;20358;-69
2023/01/30 19:48:47;;;;;;;16.07;2.50;;;7.60;99.90;;;;;;4919384;29;20596;-69
2023/01/30 19:51:16;;;;;;;7.67;1.87;;;7.70;99.90;;;;;;4919882;29;20209;-69
2023/01/30 19:53:44;;;;;;;6.67;1.60;;;7.60;99.90;;;;;;4919223;29;20226;-69
2023/01/30 19:56:13;;;;;;;6.37;1.57;;;7.60;99.90;;;;;;4919541;29;20213;-69
2023/01/30 19:58:40;;;;;;;11.30;2.30;;;7.70;99.90;;;;;;4919485;29;20297;-69
2023/01/30 20:01:08;;;;;;;10.90;2.30;;;7.70;99.90;;;;;;4919563;29;20218;-70
2023/01/30 20:03:36;;;;;;;9.10;1.63;;;7.70;99.90;;;;;;4919397;29;20324;-70
2023/01/30 20:06:09;;;;;;;9.80;2.20;;;7.70;99.90;;;;;;4919196;29;20235;-71
2023/01/30 20:08:36;;;;;;;8.57;2.00;;;7.70;99.90;;;;;;4918580;29;20205;-69
2023/01/30 20:11:03;;;;;;;12.63;2.27;;;7.70;99.90;;;;;;4919328;29;20210;-69
2023/01/30 20:13:30;;;;;;;8.00;2.33;;;7.70;99.90;;;;;;4918809;29;20718;-69
2023/01/30 20:16:02;;;;;;;8.87;2.53;;;7.60;99.90;;;;;;4919272;29;20219;-71
2023/01/30 20:18:29;;;;;;;7.40;2.30;;;7.60;99.90;;;;;;4919207;29;20237;-70
2023/01/30 20:20:56;;;;;;;9.40;2.17;;;7.60;99.90;;;;;;4919059;29;20217;-70
2023/01/30 20:23:24;;;;;;;8.93;2.27;;;7.60;99.90;;;;;;4919441;29;20259;-69
2023/01/30 20:25:52;;;;;;;10.87;2.33;;;7.60;99.90;;;;;;4918975;29;20244;-69
2023/01/30 20:28:18;;;;;;;9.93;2.57;;;7.60;99.90;;;;;;4918665;29;20219;-71
2023/01/30 20:30:45;;;;;;;9.63;2.47;;;7.50;99.90;;;;;;4918701;29;20566;-70
2023/01/30 20:33:12;;;;;;;8.93;2.90;;;7.60;99.90;;;;;;4918856;29;20226;-69
2023/01/30 20:35:39;;;;;;;5.20;2.07;;;7.50;99.90;;;;;;4918828;29;20304;-71
2023/01/30 20:38:06;;;;;;;9.97;3.00;;;7.50;99.90;;;;;;4919142;29;20206;-71
2023/01/30 20:40:34;;;;;;;7.50;2.30;;;7.40;99.90;;;;;;4918989;29;20206;-69
2023/01/30 20:43:01;;;;;;;10.23;2.27;;;7.40;99.90;;;;;;4918495;29;20234;-70
2023/01/30 20:45:28;;;;;;;15.93;3.33;;;7.10;99.90;;;;;;4918638;29;20206;-68
2023/01/30 20:47:54;;;;;;;10.23;2.40;;;7.20;99.90;;;;;;4918902;29;20661;-69
2023/01/30 20:50:21;;;;;;;13.73;2.83;;;7.10;99.90;;;;;;4919247;29;20210;-69
2023/01/30 20:52:50;;;;;;;12.23;2.70;;;6.90;99.90;;;;;;4918026;29;20696;-70
2023/01/30 20:55:17;;;;;;;10.10;2.67;;;6.90;99.90;;;;;;4918123;29;20300;-70
2023/01/30 20:57:45;;;;;;;11.63;2.37;;;6.90;99.90;;;;;;4918323;29;20222;-70
2023/01/30 21:00:13;;;;;;;8.03;2.10;;;7.00;99.90;;;;;;4918097;29;20209;-69
2023/01/30 21:02:41;;;;;;;10.87;3.23;;;7.00;99.90;;;;;;4918580;29;20213;-70
2023/01/30 21:05:08;;;;;;;5.57;2.10;;;6.90;99.90;;;;;;4917878;29;20210;-69
2023/01/30 21:07:35;;;;;;;6.87;2.03;;;6.90;99.90;;;;;;4917707;29;20243;-70
2023/01/30 21:10:02;;;;;;;13.60;3.27;;;7.00;99.90;;;;;;4918033;29;20673;-70
2023/01/30 21:12:29;;;;;;;15.60;3.13;;;7.00;99.90;;;;;;4917927;29;20681;-70
2023/01/30 21:14:57;;;;;;;7.53;2.13;;;6.90;99.90;;;;;;4918462;29;20576;-71
2023/01/30 21:17:24;;;;;;;9.43;2.50;;;7.00;99.90;;;;;;4918073;29;20217;-70
2023/01/30 21:19:51;;;;;;;6.53;2.37;;;6.90;99.90;;;;;;4917944;29;20665;-70
2023/01/30 21:22:18;;;;;;;11.73;2.33;;;6.80;99.90;;;;;;4918133;29;20562;-68
2023/01/30 21:24:44;;;;;;;10.17;2.03;;;6.70;99.90;;;;;;4917970;29;20247;-69
2023/01/30 21:27:11;;;;;;;7.47;2.30;;;6.70;99.90;;;;;;4917618;29;20245;-69
2023/01/30 21:29:38;;;;;;;6.10;2.50;;;6.60;99.90;;;;;;4917949;29;20300;-70
2023/01/30 21:32:06;;;;;;;8.43;2.50;;;6.50;99.90;;;;;;4918032;29;20205;-69
2023/01/30 21:34:34;;;;;;;9.33;2.73;;;6.40;99.90;;;;;;4917923;29;20229;-69
2023/01/30 21:45:14;;;;;;;13.13;3.17;;;5.90;99.90;;;;;;4917769;29;20303;-70
2023/01/30 21:47:42;;;;;;;11.83;2.93;;;5.90;99.90;;;;;;4917441;29;20243;-68
